sensor_id;sensor_type;location;lat;lon;timestamp;temperature;humidity
66670;DHT22;53568;52.164;4.472;2024-01-11T00:01:18;-0.49;60.33
66670;DHT22;53568;52.164;4.472;2024-01-11T00:03:43;-0.26;59.84
66670;DHT22;53568;52.164;4.472;2024-01-11T00:06:09;-0.17;59.62
66670;DHT22;53568;52.164;4.472;2024-01-11T00:08:35;-0.26;60.14
66670;DHT22;53568;52.164;4.472;2024-01-11T00:11:00;-0.14;59.92
66670;DHT22;53568;52.164;4.472;2024-01-11T00:13:26;-0.17;59.95
66670;DHT22;53568;52.164;4.472;2024-01-11T00:15:52;-0.23;60.34
66670;DHT22;53568;52.164;4.472;2024-01-11T00:18:18;-0.45;60.84
66670;DHT22;53568;52.164;4.472;2024-01-11T00:20:44;-0.46;61.00
66670;DHT22;53568;52.164;4.472;2024-01-11T00:23:09;-0.53;61.32
66670;DHT22;53568;52.164;4.472;2024-01-11T00:25:35;-0.43;60.96
66670;DHT22;53568;52.164;4.472;2024-01-11T00:28:01;-0.31;60.60
66670;DHT22;53568;52.164;4.472;2024-01-11T00:30:27;-0.39;60.39
66670;DHT22;53568;52.164;4.472;2024-01-11T00:32:52;-0.46;60.63
66670;DHT22;53568;52.164;4.472;2024-01-11T00:35:18;-0.48;60.53
66670;DHT22;53568;52.164;4.472;2024-01-11T00:37:44;-0.51;60.77
66670;DHT22;53568;52.164;4.472;2024-01-11T00:40:10;-0.42;60.80
66670;DHT22;53568;52.164;4.472;2024-01-11T00:42:36;-0.55;61.14
66670;DHT22;53568;52.164;4.472;2024-01-11T00:45:01;-0.65;60.76
66670;DHT22;53568;52.164;4.472;2024-01-11T00:47:27;-0.46;60.27
66670;DHT22;53568;52.164;4.472;2024-01-11T00:49:52;-0.55;59.70
66670;DHT22;53568;52.164;4.472;2024-01-11T00:52:19;-0.43;59.86
66670;DHT22;53568;52.164;4.472;2024-01-11T00:54:44;-0.52;60.16
66670;DHT22;53568;52.164;4.472;2024-01-11T00:57:10;-0.66;60.05
66670;DHT22;53568;52.164;4.472;2024-01-11T00:59:35;-0.45;59.98
66670;DHT22;53568;52.164;4.472;2024-01-11T01:02:01;-0.42;60.12
66670;DHT22;53568;52.164;4.472;2024-01-11T01:04:26;-0.32;59.86
66670;DHT22;53568;52.164;4.472;2024-01-11T01:06:52;-0.39;60.12
66670;DHT22;53568;52.164;4.472;2024-01-11T01:09:17;-0.26;59.56
66670;DHT22;53568;52.164;4.472;2024-01-11T01:11:43;-0.32;59.98
66670;DHT22;53568;52.164;4.472;2024-01-11T01:14:08;-0.23;59.85
66670;DHT22;53568;52.164;4.472;2024-01-11T01:16:34;-0.23;60.15
66670;DHT22;53568;52.164;4.472;2024-01-11T01:18:59;-0.26;60.38
66670;DHT22;53568;52.164;4.472;2024-01-11T01:21:25;-0.29;60.46
66670;DHT22;53568;52.164;4.472;2024-01-11T01:23:50;-0.35;61.14
66670;DHT22;53568;52.164;4.472;2024-01-11T01:26:16;-0.36;61.41
66670;DHT22;53568;52.164;4.472;2024-01-11T01:28:41;-0.39;61.66
66670;DHT22;53568;52.164;4.472;2024-01-11T01:31:07;-0.32;61.56
66670;DHT22;53568;52.164;4.472;2024-01-11T01:33:33;-0.46;62.35
66670;DHT22;53568;52.164;4.472;2024-01-11T01:35:58;-0.53;62.53
66670;DHT22;53568;52.164;4.472;2024-01-11T01:38:24;-0.38;62.44
66670;DHT22;53568;52.164;4.472;2024-01-11T01:40:49;-0.32;62.48
66670;DHT22;53568;52.164;4.472;2024-01-11T01:43:15;-0.36;62.56
66670;DHT22;53568;52.164;4.472;2024-01-11T01:45:40;-0.29;62.26
66670;DHT22;53568;52.164;4.472;2024-01-11T01:48:07;-0.33;62.23
66670;DHT22;53568;52.164;4.472;2024-01-11T01:50:32;-0.41;62.33
66670;DHT22;53568;52.164;4.472;2024-01-11T01:52:59;-0.59;63.01
66670;DHT22;53568;52.164;4.472;2024-01-11T01:55:26;-0.66;63.25
66670;DHT22;53568;52.164;4.472;2024-01-11T01:57:54;-0.79;63.27
66670;DHT22;53568;52.164;4.472;2024-01-11T02:00:19;-0.75;63.48
66670;DHT22;53568;52.164;4.472;2024-01-11T02:02:46;-1.09;64.60
66670;DHT22;53568;52.164;4.472;2024-01-11T02:05:16;-1.10;65.14
66670;DHT22;53568;52.164;4.472;2024-01-11T02:07:44;-1.01;65.03
66670;DHT22;53568;52.164;4.472;2024-01-11T02:10:10;-0.87;64.85
66670;DHT22;53568;52.164;4.472;2024-01-11T02:12:36;-0.96;65.15
66670;DHT22;53568;52.164;4.472;2024-01-11T02:15:05;-1.06;65.66
66670;DHT22;53568;52.164;4.472;2024-01-11T02:17:31;-1.09;66.19
66670;DHT22;53568;52.164;4.472;2024-01-11T02:19:57;-0.89;65.46
66670;DHT22;53568;52.164;4.472;2024-01-11T02:22:29;-0.90;65.74
66670;DHT22;53568;52.164;4.472;2024-01-11T02:24:57;-0.90;65.79
66670;DHT22;53568;52.164;4.472;2024-01-11T02:27:23;-0.89;65.81
66670;DHT22;53568;52.164;4.472;2024-01-11T02:29:49;-1.21;66.79
66670;DHT22;53568;52.164;4.472;2024-01-11T02:32:15;-1.07;66.45
66670;DHT22;53568;52.164;4.472;2024-01-11T02:34:41;-0.97;66.58
66670;DHT22;53568;52.164;4.472;2024-01-11T02:37:07;-0.85;66.50
66670;DHT22;53568;52.164;4.472;2024-01-11T02:39:33;-0.90;66.97
66670;DHT22;53568;52.164;4.472;2024-01-11T02:42:00;-0.72;66.34
66670;DHT22;53568;52.164;4.472;2024-01-11T02:44:26;-0.65;66.52
66670;DHT22;53568;52.164;4.472;2024-01-11T02:46:52;-0.69;66.81
66670;DHT22;53568;52.164;4.472;2024-01-11T02:49:17;-0.58;66.58
66670;DHT22;53568;52.164;4.472;2024-01-11T02:51:43;-0.72;67.33
66670;DHT22;53568;52.164;4.472;2024-01-11T02:54:08;-0.68;66.92
66670;DHT22;53568;52.164;4.472;2024-01-11T02:56:34;-0.70;67.55
66670;DHT22;53568;52.164;4.472;2024-01-11T02:58:59;-0.68;67.86
66670;DHT22;53568;52.164;4.472;2024-01-11T03:01:25;-0.58;67.55
66670;DHT22;53568;52.164;4.472;2024-01-11T03:03:51;-0.46;67.32
66670;DHT22;53568;52.164;4.472;2024-01-11T03:06:16;-0.43;67.16
66670;DHT22;53568;52.164;4.472;2024-01-11T03:08:49;-0.36;67.03
66670;DHT22;53568;52.164;4.472;2024-01-11T03:11:15;-0.43;67.18
66670;DHT22;53568;52.164;4.472;2024-01-11T03:13:41;-0.61;68.12
66670;DHT22;53568;52.164;4.472;2024-01-11T03:16:07;-0.45;67.52
66670;DHT22;53568;52.164;4.472;2024-01-11T03:18:32;-0.68;68.14
66670;DHT22;53568;52.164;4.472;2024-01-11T03:20:58;-0.70;68.44
66670;DHT22;53568;52.164;4.472;2024-01-11T03:23:23;-0.83;69.16
66670;DHT22;53568;52.164;4.472;2024-01-11T03:25:49;-0.76;68.83
66670;DHT22;53568;52.164;4.472;2024-01-11T03:28:15;-1.00;69.71
66670;DHT22;53568;52.164;4.472;2024-01-11T03:30:40;-1.17;70.92
66670;DHT22;53568;52.164;4.472;2024-01-11T03:33:06;-0.95;69.80
66670;DHT22;53568;52.164;4.472;2024-01-11T03:35:31;-1.23;70.49
66670;DHT22;53568;52.164;4.472;2024-01-11T03:37:57;-1.26;70.46
66670;DHT22;53568;52.164;4.472;2024-01-11T03:40:22;-1.33;70.75
66670;DHT22;53568;52.164;4.472;2024-01-11T03:42:48;-1.36;71.11
66670;DHT22;53568;52.164;4.472;2024-01-11T03:45:17;-1.29;71.08
66670;DHT22;53568;52.164;4.472;2024-01-11T03:47:43;-1.47;71.75
66670;DHT22;53568;52.164;4.472;2024-01-11T03:50:09;-1.26;71.24
66670;DHT22;53568;52.164;4.472;2024-01-11T03:52:34;-1.20;71.26
66670;DHT22;53568;52.164;4.472;2024-01-11T03:55:00;-1.34;71.63
66670;DHT22;53568;52.164;4.472;2024-01-11T03:57:25;-1.46;72.31
66670;DHT22;53568;52.164;4.472;2024-01-11T03:59:51;-1.39;72.57
66670;DHT22;53568;52.164;4.472;2024-01-11T04:02:16;-1.40;72.67
66670;DHT22;53568;52.164;4.472;2024-01-11T04:04:41;-1.39;72.37
66670;DHT22;53568;52.164;4.472;2024-01-11T04:07:07;-1.24;72.42
66670;DHT22;53568;52.164;4.472;2024-01-11T04:09:33;-1.24;72.38
66670;DHT22;53568;52.164;4.472;2024-01-11T04:11:58;-1.17;72.54
66670;DHT22;53568;52.164;4.472;2024-01-11T04:14:24;-1.04;72.37
66670;DHT22;53568;52.164;4.472;2024-01-11T04:16:49;-1.07;72.52
66670;DHT22;53568;52.164;4.472;2024-01-11T04:19:15;-1.03;72.32
66670;DHT22;53568;52.164;4.472;2024-01-11T04:21:40;-1.14;72.45
66670;DHT22;53568;52.164;4.472;2024-01-11T04:24:07;-1.14;72.75
66670;DHT22;53568;52.164;4.472;2024-01-11T04:26:32;-1.30;73.78
66670;DHT22;53568;52.164;4.472;2024-01-11T04:28:58;-1.26;73.89
66670;DHT22;53568;52.164;4.472;2024-01-11T04:31:25;-1.41;74.87
66670;DHT22;53568;52.164;4.472;2024-01-11T04:33:51;-1.53;75.16
66670;DHT22;53568;52.164;4.472;2024-01-11T04:36:16;-1.36;74.88
66670;DHT22;53568;52.164;4.472;2024-01-11T04:38:42;-1.30;74.78
66670;DHT22;53568;52.164;4.472;2024-01-11T04:41:08;-1.21;74.29
66670;DHT22;53568;52.164;4.472;2024-01-11T04:43:44;-1.11;74.19
66670;DHT22;53568;52.164;4.472;2024-01-11T04:46:17;-1.26;74.51
66670;DHT22;53568;52.164;4.472;2024-01-11T04:48:43;-1.41;74.51
66670;DHT22;53568;52.164;4.472;2024-01-11T04:51:09;-1.44;74.47
66670;DHT22;53568;52.164;4.472;2024-01-11T04:53:39;-1.61;74.94
66670;DHT22;53568;52.164;4.472;2024-01-11T04:56:06;-1.65;75.19
66670;DHT22;53568;52.164;4.472;2024-01-11T04:58:33;-1.79;75.38
66670;DHT22;53568;52.164;4.472;2024-01-11T05:00:59;-1.82;75.92
66670;DHT22;53568;52.164;4.472;2024-01-11T05:03:25;-1.67;75.87
66670;DHT22;53568;52.164;4.472;2024-01-11T05:05:51;-1.60;75.61
66670;DHT22;53568;52.164;4.472;2024-01-11T05:08:16;-1.63;75.61
66670;DHT22;53568;52.164;4.472;2024-01-11T05:10:42;-1.67;75.52
66670;DHT22;53568;52.164;4.472;2024-01-11T05:13:08;-1.75;75.88
66670;DHT22;53568;52.164;4.472;2024-01-11T05:15:34;-1.72;76.25
66670;DHT22;53568;52.164;4.472;2024-01-11T05:18:00;-1.78;76.14
66670;DHT22;53568;52.164;4.472;2024-01-11T05:20:25;-1.74;76.02
66670;DHT22;53568;52.164;4.472;2024-01-11T05:22:51;-1.88;76.25
66670;DHT22;53568;52.164;4.472;2024-01-11T05:25:16;-1.72;76.20
66670;DHT22;53568;52.164;4.472;2024-01-11T05:27:42;-1.64;75.89
66670;DHT22;53568;52.164;4.472;2024-01-11T05:30:08;-1.50;75.43
66670;DHT22;53568;52.164;4.472;2024-01-11T05:32:33;-1.46;75.21
66670;DHT22;53568;52.164;4.472;2024-01-11T05:34:59;-1.41;74.66
66670;DHT22;53568;52.164;4.472;2024-01-11T05:37:24;-1.58;75.37
66670;DHT22;53568;52.164;4.472;2024-01-11T05:39:50;-1.70;75.40
66670;DHT22;53568;52.164;4.472;2024-01-11T05:42:15;-1.61;75.55
66670;DHT22;53568;52.164;4.472;2024-01-11T05:44:41;-1.54;75.37
66670;DHT22;53568;52.164;4.472;2024-01-11T05:47:06;-1.55;75.52
66670;DHT22;53568;52.164;4.472;2024-01-11T05:49:32;-1.50;75.34
66670;DHT22;53568;52.164;4.472;2024-01-11T05:51:57;-1.37;75.21
66670;DHT22;53568;52.164;4.472;2024-01-11T05:54:23;-1.31;74.60
66670;DHT22;53568;52.164;4.472;2024-01-11T05:56:48;-1.23;74.53
66670;DHT22;53568;52.164;4.472;2024-01-11T05:59:15;-1.19;74.72
66670;DHT22;53568;52.164;4.472;2024-01-11T06:01:41;-1.23;74.45
66670;DHT22;53568;52.164;4.472;2024-01-11T06:04:08;-1.10;74.29
66670;DHT22;53568;52.164;4.472;2024-01-11T06:06:33;-1.09;73.73
66670;DHT22;53568;52.164;4.472;2024-01-11T06:08:59;-1.13;73.77
66670;DHT22;53568;52.164;4.472;2024-01-11T06:11:24;-1.17;73.84
66670;DHT22;53568;52.164;4.472;2024-01-11T06:13:50;-1.11;73.89
66670;DHT22;53568;52.164;4.472;2024-01-11T06:16:15;-1.07;73.74
66670;DHT22;53568;52.164;4.472;2024-01-11T06:18:41;-1.21;73.73
66670;DHT22;53568;52.164;4.472;2024-01-11T06:21:06;-1.27;73.86
66670;DHT22;53568;52.164;4.472;2024-01-11T06:23:32;-1.20;73.97
66670;DHT22;53568;52.164;4.472;2024-01-11T06:25:57;-1.24;73.93
66670;DHT22;53568;52.164;4.472;2024-01-11T06:28:23;-1.39;74.01
66670;DHT22;53568;52.164;4.472;2024-01-11T06:30:48;-1.37;73.90
66670;DHT22;53568;52.164;4.472;2024-01-11T06:33:14;-1.48;74.34
66670;DHT22;53568;52.164;4.472;2024-01-11T06:35:39;-1.68;75.18
66670;DHT22;53568;52.164;4.472;2024-01-11T06:38:05;-1.67;74.90
66670;DHT22;53568;52.164;4.472;2024-01-11T06:40:31;-1.74;75.24
66670;DHT22;53568;52.164;4.472;2024-01-11T06:42:57;-1.88;75.70
66670;DHT22;53568;52.164;4.472;2024-01-11T06:45:23;-1.88;76.40
66670;DHT22;53568;52.164;4.472;2024-01-11T06:47:48;-1.79;76.37
66670;DHT22;53568;52.164;4.472;2024-01-11T06:50:14;-1.79;76.60
66670;DHT22;53568;52.164;4.472;2024-01-11T06:52:40;-1.82;76.72
66670;DHT22;53568;52.164;4.472;2024-01-11T06:55:06;-1.85;76.57
66670;DHT22;53568;52.164;4.472;2024-01-11T06:57:31;-1.85;76.70
66670;DHT22;53568;52.164;4.472;2024-01-11T06:59:57;-1.77;76.61
66670;DHT22;53568;52.164;4.472;2024-01-11T07:02:22;-1.88;76.81
66670;DHT22;53568;52.164;4.472;2024-01-11T07:04:48;-1.72;76.66
66670;DHT22;53568;52.164;4.472;2024-01-11T07:07:13;-1.81;76.83
66670;DHT22;53568;52.164;4.472;2024-01-11T07:09:39;-1.75;76.64
66670;DHT22;53568;52.164;4.472;2024-01-11T07:12:05;-1.61;76.42
66670;DHT22;53568;52.164;4.472;2024-01-11T07:14:31;-1.48;76.15
66670;DHT22;53568;52.164;4.472;2024-01-11T07:16:57;-1.63;76.03
66670;DHT22;53568;52.164;4.472;2024-01-11T07:19:23;-1.57;76.36
66670;DHT22;53568;52.164;4.472;2024-01-11T07:21:48;-1.58;76.43
66670;DHT22;53568;52.164;4.472;2024-01-11T07:24:14;-1.36;75.78
66670;DHT22;53568;52.164;4.472;2024-01-11T07:26:41;-1.26;75.43
66670;DHT22;53568;52.164;4.472;2024-01-11T07:29:07;-1.21;75.12
66670;DHT22;53568;52.164;4.472;2024-01-11T07:31:32;-1.21;74.97
66670;DHT22;53568;52.164;4.472;2024-01-11T07:33:58;-1.19;75.03
66670;DHT22;53568;52.164;4.472;2024-01-11T07:36:24;-1.21;75.04
66670;DHT22;53568;52.164;4.472;2024-01-11T07:38:50;-1.23;75.19
66670;DHT22;53568;52.164;4.472;2024-01-11T07:41:15;-1.30;75.16
66670;DHT22;53568;52.164;4.472;2024-01-11T07:43:41;-1.04;75.05
66670;DHT22;53568;52.164;4.472;2024-01-11T07:46:07;-0.96;74.66
66670;DHT22;53568;52.164;4.472;2024-01-11T07:48:33;-0.82;74.39
66670;DHT22;53568;52.164;4.472;2024-01-11T07:50:59;-0.70;74.20
66670;DHT22;53568;52.164;4.472;2024-01-11T07:53:25;-0.52;74.04
66670;DHT22;53568;52.164;4.472;2024-01-11T07:55:51;-0.39;73.40
66670;DHT22;53568;52.164;4.472;2024-01-11T07:58:17;-0.56;72.92
66670;DHT22;53568;52.164;4.472;2024-01-11T08:00:44;-0.70;72.97
66670;DHT22;53568;52.164;4.472;2024-01-11T08:03:10;-0.69;72.94
66670;DHT22;53568;52.164;4.472;2024-01-11T08:05:36;-0.90;73.29
66670;DHT22;53568;52.164;4.472;2024-01-11T08:08:01;-0.85;73.17
66670;DHT22;53568;52.164;4.472;2024-01-11T08:10:29;-1.10;73.92
66670;DHT22;53568;52.164;4.472;2024-01-11T08:12:56;-1.21;74.11
66670;DHT22;53568;52.164;4.472;2024-01-11T08:15:22;-1.16;74.11
66670;DHT22;53568;52.164;4.472;2024-01-11T08:17:47;-1.07;74.29
66670;DHT22;53568;52.164;4.472;2024-01-11T08:20:13;-1.03;73.85
66670;DHT22;53568;52.164;4.472;2024-01-11T08:22:43;-0.99;73.72
66670;DHT22;53568;52.164;4.472;2024-01-11T08:25:09;-1.11;74.20
66670;DHT22;53568;52.164;4.472;2024-01-11T08:27:35;-1.00;73.84
66670;DHT22;53568;52.164;4.472;2024-01-11T08:30:01;-0.92;73.78
66670;DHT22;53568;52.164;4.472;2024-01-11T08:32:27;-0.87;73.37
66670;DHT22;53568;52.164;4.472;2024-01-11T08:34:53;-1.00;73.13
66670;DHT22;53568;52.164;4.472;2024-01-11T08:37:19;-1.10;73.32
66670;DHT22;53568;52.164;4.472;2024-01-11T08:39:44;-1.36;74.06
66670;DHT22;53568;52.164;4.472;2024-01-11T08:42:12;-1.29;74.11
66670;DHT22;53568;52.164;4.472;2024-01-11T08:44:41;-1.16;73.98
66670;DHT22;53568;52.164;4.472;2024-01-11T08:47:08;-1.21;73.77
66670;DHT22;53568;52.164;4.472;2024-01-11T08:49:40;-1.00;73.72
66670;DHT22;53568;52.164;4.472;2024-01-11T08:52:07;-0.99;73.70
66670;DHT22;53568;52.164;4.472;2024-01-11T08:54:34;-1.09;73.55
66670;DHT22;53568;52.164;4.472;2024-01-11T08:57:00;-1.00;73.92
66670;DHT22;53568;52.164;4.472;2024-01-11T08:59:26;-1.03;73.88
66670;DHT22;53568;52.164;4.472;2024-01-11T09:01:52;-0.82;73.79
66670;DHT22;53568;52.164;4.472;2024-01-11T09:04:18;-0.83;73.34
66670;DHT22;53568;52.164;4.472;2024-01-11T09:06:44;-0.89;73.68
66670;DHT22;53568;52.164;4.472;2024-01-11T09:09:11;-1.00;73.82
66670;DHT22;53568;52.164;4.472;2024-01-11T09:11:37;-1.01;74.51
66670;DHT22;53568;52.164;4.472;2024-01-11T09:14:02;-1.04;74.39
66670;DHT22;53568;52.164;4.472;2024-01-11T09:16:28;-0.89;74.37
66670;DHT22;53568;52.164;4.472;2024-01-11T09:18:54;-0.87;74.45
66670;DHT22;53568;52.164;4.472;2024-01-11T09:21:19;-0.95;74.48
66670;DHT22;53568;52.164;4.472;2024-01-11T09:23:45;-0.89;74.55
66670;DHT22;53568;52.164;4.472;2024-01-11T09:26:10;-0.95;75.14
66670;DHT22;53568;52.164;4.472;2024-01-11T09:28:36;-0.79;75.15
66670;DHT22;53568;52.164;4.472;2024-01-11T09:31:02;-0.80;75.35
66670;DHT22;53568;52.164;4.472;2024-01-11T09:33:27;-0.76;75.53
66670;DHT22;53568;52.164;4.472;2024-01-11T09:35:54;-0.49;75.82
66670;DHT22;53568;52.164;4.472;2024-01-11T09:38:21;-0.35;76.19
66670;DHT22;53568;52.164;4.472;2024-01-11T09:41:03;-0.18;76.13
66670;DHT22;53568;52.164;4.472;2024-01-11T09:43:33;-0.02;76.80
66670;DHT22;53568;52.164;4.472;2024-01-11T09:46:04;0.06;77.19
66670;DHT22;53568;52.164;4.472;2024-01-11T09:48:38;0.17;76.79
66670;DHT22;53568;52.164;4.472;2024-01-11T09:51:08;0.26;76.66
66670;DHT22;53568;52.164;4.472;2024-01-11T09:53:36;0.34;76.47
66670;DHT22;53568;52.164;4.472;2024-01-11T09:56:08;0.43;77.03
66670;DHT22;53568;52.164;4.472;2024-01-11T09:58:35;0.56;76.51
66670;DHT22;53568;52.164;4.472;2024-01-11T10:01:09;0.85;76.32
66670;DHT22;53568;52.164;4.472;2024-01-11T10:03:35;0.92;75.88
66670;DHT22;53568;52.164;4.472;2024-01-11T10:06:00;0.95;76.13
66670;DHT22;53568;52.164;4.472;2024-01-11T10:08:27;0.92;76.41
66670;DHT22;53568;52.164;4.472;2024-01-11T10:10:54;0.81;77.22
66670;DHT22;53568;52.164;4.472;2024-01-11T10:13:27;1.00;76.90
66670;DHT22;53568;52.164;4.472;2024-01-11T10:16:07;1.01;76.89
66670;DHT22;53568;52.164;4.472;2024-01-11T10:18:34;1.02;76.74
66670;DHT22;53568;52.164;4.472;2024-01-11T10:20:59;1.08;76.77
66670;DHT22;53568;52.164;4.472;2024-01-11T10:23:24;1.05;76.91
66670;DHT22;53568;52.164;4.472;2024-01-11T10:25:50;1.24;76.73
66670;DHT22;53568;52.164;4.472;2024-01-11T10:28:15;1.49;76.40
66670;DHT22;53568;52.164;4.472;2024-01-11T10:30:46;1.49;76.07
66670;DHT22;53568;52.164;4.472;2024-01-11T10:33:12;1.52;76.51
66670;DHT22;53568;52.164;4.472;2024-01-11T10:35:37;1.65;76.29
66670;DHT22;53568;52.164;4.472;2024-01-11T10:38:09;1.83;76.05
66670;DHT22;53568;52.164;4.472;2024-01-11T10:40:35;1.95;75.73
66670;DHT22;53568;52.164;4.472;2024-01-11T10:43:02;1.85;75.83
66670;DHT22;53568;52.164;4.472;2024-01-11T10:45:31;1.86;76.74
66670;DHT22;53568;52.164;4.472;2024-01-11T10:48:15;1.93;76.62
66670;DHT22;53568;52.164;4.472;2024-01-11T10:50:46;2.00;76.47
66670;DHT22;53568;52.164;4.472;2024-01-11T10:56:10;1.98;76.75
66670;DHT22;53568;52.164;4.472;2024-01-11T10:58:40;1.93;77.11
66670;DHT22;53568;52.164;4.472;2024-01-11T11:01:06;1.92;77.40
66670;DHT22;53568;52.164;4.472;2024-01-11T11:03:34;2.00;77.68
66670;DHT22;53568;52.164;4.472;2024-01-11T11:06:01;2.03;77.65
66670;DHT22;53568;52.164;4.472;2024-01-11T11:08:28;1.96;77.81
66670;DHT22;53568;52.164;4.472;2024-01-11T11:10:56;2.14;77.82
66670;DHT22;53568;52.164;4.472;2024-01-11T11:13:26;2.16;77.87
66670;DHT22;53568;52.164;4.472;2024-01-11T11:15:52;2.26;78.01
66670;DHT22;53568;52.164;4.472;2024-01-11T11:18:19;2.34;77.75
66670;DHT22;53568;52.164;4.472;2024-01-11T11:20:46;2.34;77.90
66670;DHT22;53568;52.164;4.472;2024-01-11T11:23:15;2.44;77.96
66670;DHT22;53568;52.164;4.472;2024-01-11T11:25:45;2.47;78.00
66670;DHT22;53568;52.164;4.472;2024-01-11T11:28:12;2.47;78.45
66670;DHT22;53568;52.164;4.472;2024-01-11T11:30:41;2.64;78.02
66670;DHT22;53568;52.164;4.472;2024-01-11T11:33:26;2.68;77.83
66670;DHT22;53568;52.164;4.472;2024-01-11T11:35:53;2.68;77.57
66670;DHT22;53568;52.164;4.472;2024-01-11T11:38:27;2.68;77.82
66670;DHT22;53568;52.164;4.472;2024-01-11T11:41:00;2.70;77.99
66670;DHT22;53568;52.164;4.472;2024-01-11T11:43:27;2.75;77.96
66670;DHT22;53568;52.164;4.472;2024-01-11T11:45:54;2.83;77.92
66670;DHT22;53568;52.164;4.472;2024-01-11T11:51:08;2.97;77.53
66670;DHT22;53568;52.164;4.472;2024-01-11T11:53:35;3.02;77.33
66670;DHT22;53568;52.164;4.472;2024-01-11T11:56:02;3.11;77.23
66670;DHT22;53568;52.164;4.472;2024-01-11T11:58:29;3.13;77.14
66670;DHT22;53568;52.164;4.472;2024-01-11T12:00:56;3.25;77.03
66670;DHT22;53568;52.164;4.472;2024-01-11T12:03:31;3.19;76.75
66670;DHT22;53568;52.164;4.472;2024-01-11T12:06:03;3.31;76.68
66670;DHT22;53568;52.164;4.472;2024-01-11T12:08:30;3.49;76.68
66670;DHT22;53568;52.164;4.472;2024-01-11T12:10:56;3.63;76.28
66670;DHT22;53568;52.164;4.472;2024-01-11T12:13:22;3.77;75.99
66670;DHT22;53568;52.164;4.472;2024-01-11T12:15:47;3.87;75.71
66670;DHT22;53568;52.164;4.472;2024-01-11T12:18:13;4.01;75.22
66670;DHT22;53568;52.164;4.472;2024-01-11T12:20:39;4.03;74.83
66670;DHT22;53568;52.164;4.472;2024-01-11T12:23:04;3.99;74.74
66670;DHT22;53568;52.164;4.472;2024-01-11T12:25:31;3.97;74.63
66670;DHT22;53568;52.164;4.472;2024-01-11T12:27:57;4.01;74.68
66670;DHT22;53568;52.164;4.472;2024-01-11T12:30:24;4.14;74.49
66670;DHT22;53568;52.164;4.472;2024-01-11T12:32:50;4.14;74.18
66670;DHT22;53568;52.164;4.472;2024-01-11T12:35:17;4.11;73.97
66670;DHT22;53568;52.164;4.472;2024-01-11T12:38:05;4.11;73.88
66670;DHT22;53568;52.164;4.472;2024-01-11T12:40:35;4.13;73.64
66670;DHT22;53568;52.164;4.472;2024-01-11T12:43:03;4.16;73.70
66670;DHT22;53568;52.164;4.472;2024-01-11T12:45:29;4.22;73.73
66670;DHT22;53568;52.164;4.472;2024-01-11T12:47:58;4.24;73.50
66670;DHT22;53568;52.164;4.472;2024-01-11T12:50:26;4.24;73.41
66670;DHT22;53568;52.164;4.472;2024-01-11T12:55:47;4.27;73.52
66670;DHT22;53568;52.164;4.472;2024-01-11T12:58:13;4.27;73.52
66670;DHT22;53568;52.164;4.472;2024-01-11T13:00:44;4.27;73.49
66670;DHT22;53568;52.164;4.472;2024-01-11T13:03:10;4.30;73.34
66670;DHT22;53568;52.164;4.472;2024-01-11T13:05:35;4.31;73.38
66670;DHT22;53568;52.164;4.472;2024-01-11T13:08:02;4.31;73.46
66670;DHT22;53568;52.164;4.472;2024-01-11T13:10:29;4.36;73.48
66670;DHT22;53568;52.164;4.472;2024-01-11T13:12:56;4.36;73.50
66670;DHT22;53568;52.164;4.472;2024-01-11T13:15:22;4.53;73.42
66670;DHT22;53568;52.164;4.472;2024-01-11T13:17:48;4.65;73.28
66670;DHT22;53568;52.164;4.472;2024-01-11T13:20:14;4.64;73.14
66670;DHT22;53568;52.164;4.472;2024-01-11T13:22:40;4.58;73.07
66670;DHT22;53568;52.164;4.472;2024-01-11T13:25:06;4.60;73.06
66670;DHT22;53568;52.164;4.472;2024-01-11T13:27:32;4.68;73.10
66670;DHT22;53568;52.164;4.472;2024-01-11T13:29:57;4.58;72.89
66670;DHT22;53568;52.164;4.472;2024-01-11T13:32:23;4.72;73.00
66670;DHT22;53568;52.164;4.472;2024-01-11T13:34:49;4.65;72.73
66670;DHT22;53568;52.164;4.472;2024-01-11T13:37:19;4.60;72.90
66670;DHT22;53568;52.164;4.472;2024-01-11T13:39:45;4.58;72.90
66670;DHT22;53568;52.164;4.472;2024-01-11T13:42:10;4.57;73.12
66670;DHT22;53568;52.164;4.472;2024-01-11T13:44:37;4.54;73.24
66670;DHT22;53568;52.164;4.472;2024-01-11T13:47:03;4.60;73.25
66670;DHT22;53568;52.164;4.472;2024-01-11T13:49:29;4.65;73.19
66670;DHT22;53568;52.164;4.472;2024-01-11T13:51:54;4.68;73.02
66670;DHT22;53568;52.164;4.472;2024-01-11T13:54:20;4.65;73.02
66670;DHT22;53568;52.164;4.472;2024-01-11T13:56:47;4.68;72.98
66670;DHT22;53568;52.164;4.472;2024-01-11T13:59:14;4.67;72.99
66670;DHT22;53568;52.164;4.472;2024-01-11T14:01:39;4.68;72.96
66670;DHT22;53568;52.164;4.472;2024-01-11T14:04:05;4.69;72.90
66670;DHT22;53568;52.164;4.472;2024-01-11T14:06:30;4.69;73.09
66670;DHT22;53568;52.164;4.472;2024-01-11T14:08:56;4.74;73.01
66670;DHT22;53568;52.164;4.472;2024-01-11T14:11:21;4.60;73.58
66670;DHT22;53568;52.164;4.472;2024-01-11T14:13:47;4.65;73.58
66670;DHT22;53568;52.164;4.472;2024-01-11T14:16:13;4.69;73.48
66670;DHT22;53568;52.164;4.472;2024-01-11T14:18:41;4.71;73.50
66670;DHT22;53568;52.164;4.472;2024-01-11T14:21:06;4.71;73.55
66670;DHT22;53568;52.164;4.472;2024-01-11T14:23:32;4.75;73.43
66670;DHT22;53568;52.164;4.472;2024-01-11T14:25:57;4.84;73.36
66670;DHT22;53568;52.164;4.472;2024-01-11T14:28:23;4.82;73.36
66670;DHT22;53568;52.164;4.472;2024-01-11T14:30:49;4.78;73.23
66670;DHT22;53568;52.164;4.472;2024-01-11T14:33:14;4.78;73.24
66670;DHT22;53568;52.164;4.472;2024-01-11T14:35:40;4.74;73.25
66670;DHT22;53568;52.164;4.472;2024-01-11T14:38:05;4.72;73.32
66670;DHT22;53568;52.164;4.472;2024-01-11T14:40:31;4.62;73.49
66670;DHT22;53568;52.164;4.472;2024-01-11T14:42:56;4.62;73.51
66670;DHT22;53568;52.164;4.472;2024-01-11T14:45:22;4.60;73.65
66670;DHT22;53568;52.164;4.472;2024-01-11T14:47:47;4.67;73.61
66670;DHT22;53568;52.164;4.472;2024-01-11T14:50:13;4.57;73.93
66670;DHT22;53568;52.164;4.472;2024-01-11T14:52:38;4.60;73.85
66670;DHT22;53568;52.164;4.472;2024-01-11T14:55:05;4.64;73.88
66670;DHT22;53568;52.164;4.472;2024-01-11T14:57:31;4.67;73.91
66670;DHT22;53568;52.164;4.472;2024-01-11T14:59:57;4.68;73.85
66670;DHT22;53568;52.164;4.472;2024-01-11T15:02:22;4.72;73.89
66670;DHT22;53568;52.164;4.472;2024-01-11T15:04:48;4.76;73.91
66670;DHT22;53568;52.164;4.472;2024-01-11T15:07:14;4.76;73.87
66670;DHT22;53568;52.164;4.472;2024-01-11T15:09:40;4.78;73.95
66670;DHT22;53568;52.164;4.472;2024-01-11T15:12:05;4.85;73.94
66670;DHT22;53568;52.164;4.472;2024-01-11T15:14:31;4.84;73.96
66670;DHT22;53568;52.164;4.472;2024-01-11T15:16:57;4.85;74.08
66670;DHT22;53568;52.164;4.472;2024-01-11T15:19:23;4.84;74.01
66670;DHT22;53568;52.164;4.472;2024-01-11T15:21:49;4.84;74.03
66670;DHT22;53568;52.164;4.472;2024-01-11T15:24:14;4.76;74.08
66670;DHT22;53568;52.164;4.472;2024-01-11T15:26:40;4.75;74.25
66670;DHT22;53568;52.164;4.472;2024-01-11T15:29:06;4.72;74.63
66670;DHT22;53568;52.164;4.472;2024-01-11T15:31:32;4.79;74.68
66670;DHT22;53568;52.164;4.472;2024-01-11T15:33:57;4.89;74.50
66670;DHT22;53568;52.164;4.472;2024-01-11T15:36:23;4.91;74.47
66670;DHT22;53568;52.164;4.472;2024-01-11T15:38:49;4.84;74.72
66670;DHT22;53568;52.164;4.472;2024-01-11T15:41:15;4.81;74.74